createdAt,value
2022-10-15T00:01:24.092Z,59.58
2022-10-15T00:03:51.196Z,56.30
2022-10-15T00:06:20.715Z,50.10
2022-10-15T00:08:48.375Z,54.20
2022-10-15T00:11:21.163Z,59.15
2022-10-15T00:13:49.220Z,55.25
2022-10-15T00:16:19.294Z,54.28
2022-10-15T00:18:46.676Z,60.53
2022-10-15T00:21:15.969Z,57.50
2022-10-15T00:23:43.592Z,53.83
2022-10-15T00:26:22.992Z,57.88
2022-10-15T00:28:52.093Z,63.92
2022-10-15T00:31:24.552Z,58.15
2022-10-15T00:33:52.682Z,52.92
2022-10-15T00:36:29.261Z,55.28
2022-10-15T00:38:56.708Z,54.97
2022-10-15T00:41:33.099Z,52.90
2022-10-15T00:44:25.574Z,51.70
2022-10-15T00:47:14.084Z,52.45
2022-10-15T00:49:45.967Z,53.05
2022-10-15T00:52:18.134Z,56.38
2022-10-15T00:54:54.350Z,56.83
2022-10-15T00:57:21.343Z,60.05
2022-10-15T00:59:52.555Z,54.90
2022-10-15T01:02:20.303Z,54.08
2022-10-15T01:04:49.069Z,59.47
2022-10-15T01:09:48.666Z,57.03
2022-10-15T01:12:37.785Z,61.55
2022-10-15T01:15:15.933Z,58.70
2022-10-15T01:17:42.791Z,59.50
2022-10-15T01:20:28.521Z,61.80
2022-10-15T01:23:25.224Z,71.53
2022-10-15T01:26:31.646Z,63.55
2022-10-15T01:29:27.885Z,69.28
2022-10-15T01:32:01.422Z,74.78
2022-10-15T01:34:51.304Z,70.03
2022-10-15T01:37:32.832Z,71.35
2022-10-15T01:40:08.348Z,76.70
2022-10-15T01:42:46.374Z,76.97
2022-10-15T01:45:20.255Z,81.82
2022-10-15T01:47:52.707Z,67.72
2022-10-15T01:50:22.870Z,66.95
2022-10-15T01:52:51.886Z,62.72
2022-10-15T01:55:21.195Z,55.85
2022-10-15T01:57:49.333Z,56.80
2022-10-15T02:00:17.100Z,58.50
2022-10-15T02:02:44.135Z,54.45
2022-10-15T02:05:20.127Z,53.67
2022-10-15T02:08:01.670Z,50.75
2022-10-15T02:10:36.947Z,53.53
2022-10-15T02:13:34.471Z,52.95
2022-10-15T02:16:13.245Z,56.38
2022-10-15T02:19:09.815Z,51.75
2022-10-15T02:21:49.960Z,50.55
2022-10-15T02:24:32.629Z,50.10
2022-10-15T02:27:03.053Z,54.35
2022-10-15T02:29:35.103Z,54.05
2022-10-15T02:32:05.449Z,52.58
2022-10-15T02:34:34.424Z,48.10
2022-10-15T02:37:04.162Z,57.50
2022-10-15T02:39:31.476Z,49.30
2022-10-15T02:41:58.854Z,50.78
2022-10-15T02:44:25.855Z,49.47
2022-10-15T02:46:52.857Z,49.65
2022-10-15T02:49:19.730Z,48.45
2022-10-15T02:51:46.624Z,48.83
2022-10-15T02:54:13.581Z,53.15
2022-10-15T02:56:40.516Z,53.88
2022-10-15T02:59:07.615Z,55.63
2022-10-15T03:01:35.431Z,50.90
2022-10-15T03:04:02.936Z,50.08
2022-10-15T03:06:29.859Z,53.33
2022-10-15T03:08:57.009Z,48.17
2022-10-15T03:11:23.940Z,51.95
2022-10-15T03:13:50.818Z,55.63
2022-10-15T03:16:17.925Z,53.92
2022-10-15T03:18:44.784Z,59.88
2022-10-15T03:21:11.827Z,59.03
2022-10-15T03:23:38.792Z,56.38
2022-10-15T03:26:05.935Z,63.17
2022-10-15T03:28:32.827Z,57.90
2022-10-15T03:31:00.162Z,65.22
2022-10-15T03:33:27.423Z,60.97
2022-10-15T03:35:54.522Z,60.17
2022-10-15T03:38:21.536Z,58.28
2022-10-15T03:40:48.444Z,59.88
2022-10-15T03:43:15.337Z,63.45
2022-10-15T03:45:42.397Z,59.15
2022-10-15T03:48:10.411Z,66.32
2022-10-15T03:50:37.364Z,60.60
2022-10-15T03:53:05.894Z,61.20
2022-10-15T03:55:33.418Z,66.03
2022-10-15T03:58:00.581Z,63.47
2022-10-15T04:00:28.782Z,61.45
2022-10-15T04:02:56.083Z,61.47
2022-10-15T04:05:23.032Z,60.38
2022-10-15T04:07:49.962Z,58.78
2022-10-15T04:10:16.973Z,55.85
2022-10-15T04:12:43.910Z,57.95
2022-10-15T04:15:10.959Z,57.47
2022-10-15T04:17:37.811Z,61.22
2022-10-15T04:20:05.176Z,59.70
2022-10-15T04:22:32.188Z,60.33
2022-10-15T04:24:59.111Z,57.20
2022-10-15T04:27:26.313Z,59.42
2022-10-15T04:29:53.214Z,54.17
2022-10-15T04:32:20.103Z,63.28
2022-10-15T04:34:48.082Z,70.15
2022-10-15T04:37:14.994Z,60.83
2022-10-15T04:39:41.922Z,71.07
2022-10-15T04:42:08.870Z,63.47
2022-10-15T04:44:35.896Z,62.92
2022-10-15T04:47:02.796Z,59.60
2022-10-15T04:49:30.037Z,59.20
2022-10-15T04:51:56.992Z,103.50
2022-10-15T04:54:24.042Z,51.67
2022-10-15T04:56:50.956Z,50.75
2022-10-15T04:59:17.881Z,49.75
2022-10-15T05:01:44.898Z,47.60
2022-10-15T05:04:12.677Z,46.53
2022-10-15T05:06:39.899Z,43.10
2022-10-15T05:09:06.811Z,42.42
2022-10-15T05:11:38.115Z,46.95
2022-10-15T05:14:05.748Z,51.70
2022-10-15T05:16:33.524Z,48.20
2022-10-15T05:19:03.335Z,48.15
2022-10-15T05:21:31.487Z,64.97
2022-10-15T05:23:59.806Z,57.95
2022-10-15T05:26:28.633Z,51.35
2022-10-15T05:28:58.202Z,49.80
2022-10-15T05:31:28.298Z,48.58
2022-10-15T05:33:55.994Z,55.38
2022-10-15T05:36:28.695Z,53.13
2022-10-15T05:39:00.473Z,56.20
2022-10-15T05:41:28.439Z,51.75
2022-10-15T05:43:56.614Z,53.13
2022-10-15T05:46:24.149Z,51.33
2022-10-15T05:48:52.354Z,52.63
2022-10-15T05:51:19.722Z,51.08
2022-10-15T05:53:46.740Z,69.90
2022-10-15T05:56:15.246Z,52.63
2022-10-15T05:58:42.358Z,70.20
2022-10-15T06:01:11.497Z,55.20
2022-10-15T06:03:39.716Z,69.03
2022-10-15T06:06:15.086Z,52.05
2022-10-15T06:08:42.104Z,54.38
2022-10-15T06:11:09.648Z,63.05
2022-10-15T06:13:41.650Z,55.72
2022-10-15T06:16:09.345Z,56.35
2022-10-15T06:18:37.595Z,55.75
2022-10-15T06:21:05.251Z,66.60
2022-10-15T06:23:32.579Z,56.50
2022-10-15T06:26:04.502Z,64.50
2022-10-15T06:28:31.941Z,57.63
2022-10-15T06:31:00.457Z,56.30
2022-10-15T06:33:28.762Z,60.70
2022-10-15T06:35:55.872Z,71.50
2022-10-15T06:38:23.927Z,63.67
2022-10-15T06:40:50.809Z,77.88
2022-10-15T06:43:17.765Z,71.10
2022-10-15T06:45:45.240Z,77.38
2022-10-15T06:48:12.721Z,108.07
2022-10-15T06:50:39.917Z,106.25
2022-10-15T06:53:07.138Z,106.22
2022-10-15T06:55:34.301Z,119.43
2022-10-15T06:58:01.477Z,112.55
2022-10-15T07:00:28.652Z,111.53
2022-10-15T07:02:56.405Z,142.95
2022-10-15T07:05:23.607Z,153.48
2022-10-15T07:07:55.155Z,142.27
2022-10-15T07:10:23.237Z,114.60
2022-10-15T07:12:50.381Z,83.28
2022-10-15T07:15:18.282Z,78.18
2022-10-15T07:17:53.495Z,63.38
2022-10-15T07:20:23.477Z,64.70
2022-10-15T07:22:52.202Z,66.45
2022-10-15T07:25:19.301Z,75.32
2022-10-15T07:27:46.219Z,72.55
2022-10-15T07:30:13.198Z,84.88
2022-10-15T07:32:40.348Z,82.85
2022-10-15T07:35:07.541Z,71.43
2022-10-15T07:37:34.531Z,79.93
2022-10-15T07:40:01.834Z,82.57
2022-10-15T07:42:28.728Z,88.28
2022-10-15T07:44:55.834Z,93.32
2022-10-15T07:47:23.040Z,88.80
2022-10-15T07:49:50.154Z,97.40
2022-10-15T07:52:17.579Z,105.63
2022-10-15T07:54:44.828Z,95.15
2022-10-15T07:57:11.737Z,94.75
2022-10-15T07:59:39.685Z,95.65
2022-10-15T08:02:06.755Z,86.05
2022-10-15T08:04:35.219Z,61.22
2022-10-15T08:07:02.180Z,50.97
2022-10-15T08:09:29.383Z,48.88
2022-10-15T08:11:56.270Z,48.90
2022-10-15T08:14:23.175Z,51.85
2022-10-15T08:16:50.144Z,42.83
2022-10-15T08:19:17.872Z,38.97
2022-10-15T08:21:47.389Z,42.47
2022-10-15T08:24:14.890Z,38.92
2022-10-15T08:26:41.864Z,47.30
2022-10-15T08:29:10.659Z,44.28
2022-10-15T08:31:38.150Z,40.15
2022-10-15T08:34:05.114Z,46.67
2022-10-15T08:36:32.311Z,45.67
2022-10-15T08:38:59.989Z,48.63
2022-10-15T08:41:39.308Z,48.70
2022-10-15T08:44:12.797Z,42.42
2022-10-15T08:46:44.593Z,42.10
2022-10-15T08:49:25.162Z,45.28
2022-10-15T08:51:57.404Z,42.55
2022-10-15T08:54:24.341Z,40.30
2022-10-15T08:57:24.839Z,44.60
2022-10-15T08:59:58.472Z,42.20
2022-10-15T09:02:58.304Z,48.28
2022-10-15T09:05:28.802Z,45.70
2022-10-15T09:08:07.359Z,48.60
2022-10-15T09:11:05.741Z,50.17
2022-10-15T09:13:42.094Z,48.08
2022-10-15T09:16:22.758Z,52.28
2022-10-15T09:18:52.754Z,46.53
2022-10-15T09:21:23.940Z,42.83
2022-10-15T09:23:52.377Z,43.47
2022-10-15T09:26:50.273Z,49.97
2022-10-15T09:29:35.685Z,57.05
2022-10-15T09:32:11.589Z,41.85
2022-10-15T09:34:48.987Z,38.28
2022-10-15T09:37:56.027Z,38.33
2022-10-15T09:40:29.427Z,32.03
2022-10-15T09:42:58.516Z,33.17
2022-10-15T09:45:25.568Z,29.58
2022-10-15T09:47:57.213Z,27.17
2022-10-15T09:50:26.208Z,31.58
2022-10-15T09:53:04.760Z,30.08
2022-10-15T09:55:31.706Z,34.03
2022-10-15T09:58:05.043Z,27.90
2022-10-15T10:01:01.166Z,32.35
2022-10-15T10:03:31.709Z,36.40
2022-10-15T10:06:09.104Z,33.15
2022-10-15T10:08:40.466Z,39.05
2022-10-15T10:11:10.988Z,34.00
2022-10-15T10:13:49.859Z,31.38
2022-10-15T10:16:19.927Z,32.35
2022-10-15T10:19:02.171Z,28.75
2022-10-15T10:21:32.264Z,31.67
2022-10-15T10:24:30.643Z,29.55
2022-10-15T10:27:02.479Z,26.63
2022-10-15T10:29:35.447Z,25.47
2022-10-15T10:32:19.229Z,29.95
2022-10-15T10:34:51.521Z,27.33
2022-10-15T10:37:20.018Z,26.27
2022-10-15T10:39:53.515Z,29.02
2022-10-15T10:42:20.953Z,33.30
2022-10-15T10:44:48.007Z,34.70
2022-10-15T10:47:23.950Z,33.90
2022-10-15T10:49:56.329Z,30.98
2022-10-15T10:52:32.732Z,25.30
2022-10-15T10:55:07.080Z,23.98
2022-10-15T10:57:42.946Z,24.02
2022-10-15T11:00:20.038Z,29.50
2022-10-15T11:02:47.264Z,26.92
2022-10-15T11:05:16.509Z,27.50
2022-10-15T11:08:02.115Z,27.08
2022-10-15T11:10:44.444Z,27.17
2022-10-15T11:13:30.500Z,27.42
2022-10-15T11:16:14.539Z,22.02
2022-10-15T11:19:43.949Z,27.30
2022-10-15T11:22:24.375Z,28.92
2022-10-15T11:25:08.785Z,29.90
2022-10-15T11:27:58.721Z,26.52
2022-10-15T11:30:46.637Z,27.05
2022-10-15T11:33:43.716Z,24.92
2022-10-15T11:36:29.187Z,26.65
2022-10-15T11:39:21.002Z,26.52
2022-10-15T11:42:05.633Z,28.77
2022-10-15T11:45:16.630Z,35.45
2022-10-15T11:48:15.426Z,33.20
2022-10-15T11:50:49.136Z,26.75
2022-10-15T11:53:15.992Z,27.05
2022-10-15T11:56:10.237Z,25.38
2022-10-15T11:58:43.414Z,29.45
2022-10-15T12:01:29.676Z,40.97
2022-10-15T12:04:02.553Z,29.90
2022-10-15T12:06:37.133Z,26.88
2022-10-15T12:09:06.763Z,32.38
2022-10-15T12:11:47.645Z,33.88
2022-10-15T12:14:26.264Z,31.88
2022-10-15T12:20:11.055Z,43.40
2022-10-15T12:22:39.938Z,41.92
2022-10-15T12:25:27.522Z,41.13
2022-10-15T12:28:30.681Z,37.00
2022-10-15T12:34:01.115Z,39.90
2022-10-15T12:36:32.302Z,44.80
2022-10-15T12:39:47.573Z,42.30
2022-10-15T12:42:38.697Z,36.95
2022-10-15T12:45:20.090Z,37.67
2022-10-15T12:48:15.866Z,44.05
2022-10-15T12:50:42.995Z,37.70
2022-10-15T12:53:34.550Z,41.17
2022-10-15T12:56:25.522Z,39.85
2022-10-15T12:58:56.257Z,35.47
2022-10-15T13:01:23.163Z,37.05
2022-10-15T13:03:52.769Z,42.53
2022-10-15T13:06:25.324Z,38.63
2022-10-15T13:11:32.059Z,36.95
2022-10-15T13:14:20.075Z,32.38
2022-10-15T13:16:48.698Z,36.42
2022-10-15T13:19:25.769Z,37.58
2022-10-15T13:21:55.343Z,40.05
2022-10-15T13:24:24.673Z,40.97
2022-10-15T13:26:52.646Z,37.80
2022-10-15T13:29:22.574Z,40.40
2022-10-15T13:31:51.715Z,40.13
2022-10-15T13:34:33.247Z,41.15
2022-10-15T13:37:03.041Z,37.70
2022-10-15T13:39:40.256Z,44.95
2022-10-15T13:42:22.722Z,40.85
2022-10-15T13:47:48.364Z,39.88
2022-10-15T13:50:27.681Z,46.63
2022-10-15T13:52:59.331Z,47.08
2022-10-15T13:55:29.577Z,46.43
2022-10-15T13:58:26.659Z,47.58
2022-10-15T14:01:01.765Z,39.58
2022-10-15T14:03:36.023Z,42.42
2022-10-15T14:06:35.914Z,41.28
2022-10-15T14:09:22.925Z,42.72
2022-10-15T14:11:50.216Z,42.47
2022-10-15T14:14:39.392Z,40.88
2022-10-15T14:17:10.890Z,52.03
2022-10-15T14:19:39.769Z,47.60
2022-10-15T14:22:07.345Z,46.45
2022-10-15T14:24:39.778Z,48.30
2022-10-15T14:27:14.518Z,51.45
2022-10-15T14:29:47.933Z,48.70
2022-10-15T14:32:47.749Z,46.95
2022-10-15T14:35:35.345Z,45.20
2022-10-15T14:38:25.827Z,48.90
2022-10-15T14:41:26.988Z,49.45
2022-10-15T14:44:05.862Z,46.03
2022-10-15T14:46:45.593Z,43.85
2022-10-15T14:49:36.095Z,38.35
2022-10-15T14:52:19.863Z,38.70
2022-10-15T14:55:13.906Z,37.53
2022-10-15T14:57:44.812Z,37.38
2022-10-15T15:00:34.583Z,35.92
2022-10-15T15:03:06.405Z,39.03
2022-10-15T15:05:54.500Z,34.97
2022-10-15T15:08:22.621Z,35.42
2022-10-15T15:10:50.791Z,38.80
2022-10-15T15:13:22.066Z,38.33
2022-10-15T15:15:49.089Z,40.65
2022-10-15T15:18:16.361Z,49.10
2022-10-15T15:20:46.130Z,37.35
2022-10-15T15:23:18.408Z,38.28
2022-10-15T15:25:45.517Z,45.47
2022-10-15T15:28:19.970Z,44.78
2022-10-15T15:30:51.177Z,42.55
2022-10-15T15:33:18.130Z,41.22
2022-10-15T15:35:52.719Z,45.38
2022-10-15T15:38:21.092Z,42.85
2022-10-15T15:40:49.565Z,43.55
2022-10-15T15:43:18.967Z,43.72
2022-10-15T15:45:47.164Z,47.53
2022-10-15T15:48:14.324Z,44.20
2022-10-15T15:50:41.409Z,41.88
2022-10-15T15:53:10.945Z,46.92
2022-10-15T15:55:37.829Z,44.85
2022-10-15T15:58:04.754Z,44.05
2022-10-15T16:00:31.655Z,43.05
2022-10-15T16:02:58.550Z,42.47
2022-10-15T16:05:25.796Z,44.35
2022-10-15T16:07:52.622Z,41.60
2022-10-15T16:10:19.547Z,46.42
2022-10-15T16:12:46.563Z,46.70
2022-10-15T16:15:14.922Z,40.92
2022-10-15T16:17:43.365Z,40.58
2022-10-15T16:20:11.272Z,37.90
2022-10-15T16:22:38.253Z,40.65
2022-10-15T16:25:05.625Z,45.58
2022-10-15T16:27:34.604Z,47.95
2022-10-15T16:30:02.994Z,52.03
2022-10-15T16:32:30.010Z,51.58
2022-10-15T16:34:56.904Z,49.92
2022-10-15T16:37:24.057Z,55.35
2022-10-15T16:39:51.133Z,53.42
2022-10-15T16:44:50.343Z,64.40
2022-10-15T16:47:17.251Z,68.10
2022-10-15T16:49:44.325Z,68.45
2022-10-15T16:52:12.093Z,58.10
2022-10-15T16:54:39.056Z,62.28
2022-10-15T16:57:06.331Z,65.25
2022-10-15T16:59:33.313Z,68.05
2022-10-15T17:02:01.395Z,64.43
2022-10-15T17:04:28.546Z,59.78
2022-10-15T17:06:55.510Z,61.70
2022-10-15T17:09:23.809Z,58.05
2022-10-15T17:11:50.727Z,59.65
2022-10-15T17:14:18.144Z,62.50
2022-10-15T17:16:51.216Z,60.40
2022-10-15T17:19:21.989Z,68.43
2022-10-15T17:21:49.057Z,65.82
2022-10-15T17:24:18.137Z,71.57
2022-10-15T17:26:46.274Z,64.72
2022-10-15T17:29:20.682Z,66.05
2022-10-15T17:31:49.371Z,64.80
2022-10-15T17:34:16.830Z,71.47
2022-10-15T17:36:48.937Z,70.95
2022-10-15T17:39:20.818Z,80.35
2022-10-15T17:41:47.833Z,73.20
2022-10-15T17:44:14.762Z,70.65
2022-10-15T17:46:42.195Z,75.63
2022-10-15T17:49:11.051Z,74.72
2022-10-15T17:51:38.230Z,73.32
2022-10-15T17:54:05.320Z,71.55
2022-10-15T17:56:34.677Z,78.28
2022-10-15T17:59:04.847Z,74.70
2022-10-15T18:04:24.422Z,75.25
2022-10-15T18:06:51.383Z,76.88
2022-10-15T18:09:18.283Z,83.10
2022-10-15T18:11:46.608Z,87.50
2022-10-15T18:14:13.621Z,87.05
2022-10-15T18:16:40.592Z,91.15
2022-10-15T18:19:08.130Z,83.55
2022-10-15T18:21:35.417Z,79.32
2022-10-15T18:24:02.435Z,76.25
2022-10-15T18:26:29.384Z,77.55
2022-10-15T18:28:56.451Z,76.65
2022-10-15T18:31:26.203Z,80.88
2022-10-15T18:33:55.881Z,79.82
2022-10-15T18:36:28.559Z,75.47
2022-10-15T18:38:56.590Z,80.20
2022-10-15T18:41:28.667Z,68.03
2022-10-15T18:43:56.816Z,69.72
2022-10-15T18:46:24.206Z,74.35
2022-10-15T18:48:51.533Z,73.88
2022-10-15T18:51:18.604Z,72.25
2022-10-15T18:53:45.645Z,74.20
2022-10-15T18:56:14.028Z,78.03
2022-10-15T18:58:45.646Z,67.60
2022-10-15T19:01:30.249Z,68.72
2022-10-15T19:03:59.615Z,77.13
2022-10-15T19:06:31.441Z,76.90
2022-10-15T19:09:03.184Z,69.95
2022-10-15T19:11:30.666Z,67.75
2022-10-15T19:13:58.387Z,72.80
2022-10-15T19:16:25.731Z,74.82
2022-10-15T19:18:52.859Z,70.15
2022-10-15T19:21:20.701Z,66.28
2022-10-15T19:23:47.859Z,75.28
2022-10-15T19:26:15.777Z,75.18
2022-10-15T19:28:43.165Z,75.22
2022-10-15T19:31:12.873Z,69.97
2022-10-15T19:33:39.990Z,65.28
2022-10-15T19:36:07.412Z,64.03
2022-10-15T19:38:37.528Z,70.95
2022-10-15T19:41:04.827Z,75.20
2022-10-15T19:43:31.746Z,70.80
2022-10-15T19:46:03.889Z,67.32
2022-10-15T19:48:31.378Z,67.15
2022-10-15T19:51:02.017Z,76.15
2022-10-15T19:53:29.501Z,77.28
2022-10-15T19:56:08.522Z,70.03
2022-10-15T19:58:36.442Z,76.80
2022-10-15T20:01:03.447Z,73.93
2022-10-15T20:03:31.043Z,67.72
2022-10-15T20:06:13.623Z,68.78
2022-10-15T20:08:40.607Z,68.72
2022-10-15T20:11:08.323Z,69.22
2022-10-15T20:13:36.536Z,78.25
2022-10-15T20:16:07.269Z,75.13
2022-10-15T20:18:35.192Z,67.78
2022-10-15T20:21:10.807Z,67.97
2022-10-15T20:23:39.213Z,70.80
2022-10-15T20:26:08.111Z,80.10
2022-10-15T20:28:40.453Z,77.80
2022-10-15T20:31:09.629Z,78.20
2022-10-15T20:33:37.798Z,76.50
2022-10-15T20:36:09.946Z,72.75
2022-10-15T20:38:41.237Z,71.43
2022-10-15T20:41:11.211Z,79.45
2022-10-15T20:43:38.630Z,77.35
2022-10-15T20:46:11.737Z,79.30
2022-10-15T20:48:40.111Z,83.15
2022-10-15T20:51:08.983Z,83.82
2022-10-15T20:53:36.677Z,97.28
2022-10-15T20:56:04.407Z,85.35
2022-10-15T20:58:31.719Z,98.20
2022-10-15T21:00:59.810Z,76.53
2022-10-15T21:03:27.271Z,72.93
2022-10-15T21:05:54.709Z,76.68
2022-10-15T21:08:22.964Z,70.03
2022-10-15T21:10:50.449Z,71.95
2022-10-15T21:13:17.317Z,74.60
2022-10-15T21:15:44.308Z,68.63
2022-10-15T21:18:11.258Z,69.22
2022-10-15T21:20:38.163Z,63.85
2022-10-15T21:23:05.253Z,63.70
2022-10-15T21:25:34.216Z,68.00
2022-10-15T21:28:01.168Z,63.50
2022-10-15T21:30:28.194Z,64.72
2022-10-15T21:32:55.097Z,70.72
2022-10-15T21:35:21.985Z,67.35
2022-10-15T21:37:48.931Z,66.63
2022-10-15T21:40:17.694Z,63.60
2022-10-15T21:42:44.595Z,66.32
2022-10-15T21:45:12.024Z,68.90
2022-10-15T21:47:38.892Z,70.45
2022-10-15T21:50:06.262Z,81.38
2022-10-15T21:52:33.233Z,77.32
2022-10-15T21:55:00.122Z,73.85
2022-10-15T21:57:27.282Z,74.63
2022-10-15T21:59:54.564Z,76.97
2022-10-15T22:02:30.981Z,72.72
2022-10-15T22:04:57.999Z,75.30
2022-10-15T22:07:25.067Z,82.43
2022-10-15T22:09:52.241Z,68.18
2022-10-15T22:12:21.205Z,82.78
2022-10-15T22:14:48.329Z,87.30
2022-10-15T22:17:15.739Z,80.20
2022-10-15T22:19:42.711Z,94.18
2022-10-15T22:22:09.597Z,98.22
2022-10-15T22:24:36.751Z,93.28
2022-10-15T22:27:03.747Z,86.03
2022-10-15T22:29:32.965Z,77.85
2022-10-15T22:32:02.493Z,77.50
2022-10-15T22:34:29.519Z,84.70
2022-10-15T22:36:56.415Z,76.97
2022-10-15T22:39:23.291Z,92.70
2022-10-15T22:41:50.468Z,87.63
2022-10-15T22:44:20.458Z,86.18
2022-10-15T22:46:49.640Z,83.43
2022-10-15T22:49:19.825Z,83.70
2022-10-15T22:51:47.406Z,83.63
2022-10-15T22:54:15.993Z,78.88
2022-10-15T22:56:43.065Z,82.35
2022-10-15T23:01:41.863Z,77.57
2022-10-15T23:04:10.056Z,71.53
2022-10-15T23:06:37.772Z,72.10
2022-10-15T23:09:06.662Z,66.25
2022-10-15T23:11:39.820Z,67.72
2022-10-15T23:14:10.602Z,72.80
2022-10-15T23:16:46.125Z,68.50
2022-10-15T23:19:18.431Z,62.30
2022-10-15T23:21:51.841Z,64.22
2022-10-15T23:24:21.811Z,62.35
2022-10-15T23:26:48.982Z,60.67
2022-10-15T23:29:18.928Z,62.03
2022-10-15T23:31:46.785Z,62.08
2022-10-15T23:34:16.656Z,71.57
2022-10-15T23:36:44.224Z,64.35
2022-10-15T23:39:14.477Z,65.28
2022-10-15T23:41:42.020Z,70.78
2022-10-15T23:44:09.348Z,70.68
2022-10-15T23:46:36.575Z,71.82
2022-10-15T23:49:04.184Z,70.50
2022-10-15T23:51:34.531Z,71.80
2022-10-15T23:54:02.194Z,74.88
2022-10-15T23:56:30.478Z,69.32
2022-10-15T23:59:00.119Z,62.67
